Apple Valley, North Dakota
Current Conditions -  °F | °C
As of 1:52 AM on Sunday 26 Oct 2014 (Local Time) from KBIS Reporting Station
Clear Clear  
Wind Chill: 39°   Ceiling: Unl
Heat Index: 45°   Visibility: 10mi
Dew Point: 32°   Wind: 12mph
Humidity: 60%   Direction: 110°ESE
Pressure: 29.86"   Gusts: NA
Location:  46.8954°N, 100.519°W
Report Text: KBIS 260652Z AUTO 11010KT 10SM CLR 07/00 A2986 RMK AO2 SLP114 T00720000
Loading
Personal Weather Stations






























Interactive Weather Map
Tropical Storm Tracking
New forecast layout! Learn more

10-Day Weather Forecast

Advertisements
Track Severe Weather on mobile